createdAt,value
2019-05-10T00:01:23.271Z,17.20
2019-05-10T00:04:08.554Z,17.10
2019-05-10T00:06:54.388Z,17.10
2019-05-10T00:09:21.407Z,17.10
2019-05-10T00:12:05.188Z,17.00
2019-05-10T00:14:47.554Z,17.00
2019-05-10T00:17:20.030Z,16.90
2019-05-10T00:19:47.397Z,16.90
2019-05-10T00:22:14.842Z,16.90
2019-05-10T00:24:42.190Z,16.80
2019-05-10T00:27:09.600Z,16.80
2019-05-10T00:29:36.921Z,16.80
2019-05-10T00:32:05.185Z,16.80
2019-05-10T00:34:32.630Z,16.80
2019-05-10T00:37:00.043Z,16.80
2019-05-10T00:39:27.427Z,16.70
2019-05-10T00:41:54.821Z,16.80
2019-05-10T00:44:22.153Z,16.80
2019-05-10T00:46:49.512Z,16.80
2019-05-10T00:49:16.965Z,16.80
2019-05-10T00:51:44.395Z,16.80
2019-05-10T00:54:11.787Z,16.80
2019-05-10T00:56:39.154Z,16.80
2019-05-10T00:59:06.411Z,16.70
2019-05-10T01:01:33.971Z,16.70
2019-05-10T01:04:01.336Z,16.70
2019-05-10T01:06:28.698Z,16.70
2019-05-10T01:08:56.175Z,16.70
2019-05-10T01:11:23.616Z,16.70
2019-05-10T01:13:50.971Z,16.70
2019-05-10T01:16:18.296Z,16.70
2019-05-10T01:18:45.830Z,16.70
2019-05-10T01:21:13.229Z,16.70
2019-05-10T01:23:40.582Z,16.60
2019-05-10T01:26:08.172Z,16.60
2019-05-10T01:28:35.659Z,16.50
2019-05-10T01:31:03.020Z,16.60
2019-05-10T01:33:30.372Z,16.60
2019-05-10T01:35:57.821Z,16.60
2019-05-10T01:38:25.224Z,16.50
2019-05-10T01:40:52.643Z,16.50
2019-05-10T01:43:19.975Z,16.50
2019-05-10T01:45:47.409Z,16.50
2019-05-10T01:48:14.753Z,15.60
2019-05-10T01:50:42.843Z,16.30
2019-05-10T01:53:10.217Z,16.40
2019-05-10T01:55:50.832Z,16.40
2019-05-10T01:58:07.004Z,16.40
2019-05-10T02:00:34.576Z,16.40
2019-05-10T02:03:02.012Z,16.30
2019-05-10T02:05:29.523Z,16.30
2019-05-10T02:07:56.895Z,16.30
2019-05-10T02:10:24.267Z,16.30
2019-05-10T02:12:53.153Z,16.30
2019-05-10T02:15:20.465Z,16.20
2019-05-10T02:17:47.817Z,16.20
2019-05-10T02:20:15.406Z,16.20
2019-05-10T02:22:42.847Z,16.10
2019-05-10T02:25:10.354Z,16.10
2019-05-10T02:27:37.774Z,16.10
2019-05-10T02:30:05.464Z,16.10
2019-05-10T02:32:32.993Z,16.00
2019-05-10T02:35:00.506Z,16.00
2019-05-10T02:37:27.955Z,16.00
2019-05-10T02:39:55.463Z,16.00
2019-05-10T02:42:22.932Z,15.90
2019-05-10T02:44:50.369Z,15.90
2019-05-10T02:47:17.755Z,15.90
2019-05-10T02:49:45.172Z,15.80
2019-05-10T02:52:12.658Z,15.80
2019-05-10T02:54:40.114Z,15.80
2019-05-10T02:57:09.957Z,17.70
2019-05-10T02:59:37.378Z,15.80
2019-05-10T03:02:05.494Z,15.70
2019-05-10T03:04:35.175Z,14.40
2019-05-10T03:07:03.564Z,15.70
2019-05-10T03:09:32.247Z,15.70
2019-05-10T03:12:18.318Z,15.70
2019-05-10T03:14:49.279Z,15.60
2019-05-10T03:17:18.630Z,15.60
2019-05-10T03:19:47.850Z,15.70
2019-05-10T03:22:17.489Z,15.60
2019-05-10T03:24:45.035Z,15.50
2019-05-10T03:27:12.610Z,13.40
2019-05-10T03:29:39.946Z,15.60
2019-05-10T03:32:07.632Z,17.50
2019-05-10T03:34:35.103Z,15.60
2019-05-10T03:37:02.983Z,15.50
2019-05-10T03:39:30.530Z,15.60
2019-05-10T03:41:57.963Z,15.50
2019-05-10T03:44:25.473Z,15.60
2019-05-10T03:46:52.972Z,15.50
2019-05-10T03:49:20.490Z,15.60
2019-05-10T03:51:47.895Z,15.50
2019-05-10T03:54:15.398Z,15.50
2019-05-10T03:56:42.827Z,15.50
2019-05-10T03:59:10.231Z,15.50
2019-05-10T04:01:38.517Z,15.50
2019-05-10T04:04:09.502Z,15.60
2019-05-10T04:06:35.216Z,15.50
2019-05-10T04:09:03.998Z,15.50
2019-05-10T04:11:31.420Z,15.50
2019-05-10T04:13:58.899Z,15.40
2019-05-10T04:16:26.445Z,15.40
2019-05-10T04:18:54.020Z,15.40
2019-05-10T04:21:21.382Z,15.30
2019-05-10T04:23:48.775Z,15.40
2019-05-10T04:26:16.241Z,15.30
2019-05-10T04:28:43.791Z,15.30
2019-05-10T04:31:11.624Z,15.30
2019-05-10T04:33:39.091Z,15.30
2019-05-10T04:36:11.741Z,15.30
2019-05-10T04:38:35.873Z,15.30
2019-05-10T04:41:03.312Z,15.30
2019-05-10T04:43:30.722Z,15.30
2019-05-10T04:45:58.182Z,15.30
2019-05-10T04:48:25.522Z,15.30
2019-05-10T04:50:53.074Z,15.30
2019-05-10T04:53:20.684Z,15.40
2019-05-10T04:55:48.125Z,15.30
2019-05-10T04:58:15.524Z,15.40
2019-05-10T05:00:43.013Z,15.40
2019-05-10T05:03:10.484Z,15.50
2019-05-10T05:05:40.016Z,15.50
2019-05-10T05:08:07.423Z,15.50
2019-05-10T05:10:34.833Z,15.60
2019-05-10T05:13:05.015Z,15.90
2019-05-10T05:15:32.403Z,15.70
2019-05-10T05:17:59.817Z,15.70
2019-05-10T05:20:27.465Z,15.70
2019-05-10T05:22:54.893Z,16.00
2019-05-10T05:25:22.447Z,15.80
2019-05-10T05:28:06.107Z,15.90
2019-05-10T05:30:19.594Z,13.80
2019-05-10T05:32:46.978Z,16.00
2019-05-10T05:35:15.475Z,16.10
2019-05-10T05:37:43.429Z,16.20
2019-05-10T05:40:11.199Z,16.20
2019-05-10T05:42:38.896Z,16.30
2019-05-10T05:45:06.675Z,16.40
2019-05-10T05:47:37.648Z,16.40
2019-05-10T05:50:04.325Z,16.40
2019-05-10T05:52:31.824Z,16.60
2019-05-10T05:54:59.296Z,16.20
2019-05-10T05:57:27.578Z,16.70
2019-05-10T06:01:29.577Z,16.70
2019-05-10T06:04:00.170Z,15.20
2019-05-10T06:06:26.722Z,16.80
2019-05-10T06:08:59.244Z,16.90
2019-05-10T06:11:23.541Z,17.00
2019-05-10T06:13:51.019Z,17.00
2019-05-10T06:16:18.357Z,17.00
2019-05-10T06:18:47.723Z,17.10
2019-05-10T06:21:17.982Z,17.10
2019-05-10T06:23:45.442Z,17.10
2019-05-10T06:26:21.388Z,17.10
2019-05-10T06:28:58.288Z,17.20
2019-05-10T06:31:14.570Z,17.20
2019-05-10T06:33:45.022Z,16.90
2019-05-10T06:36:11.388Z,17.30
2019-05-10T06:38:38.814Z,17.40
2019-05-10T06:41:10.160Z,17.40
2019-05-10T06:43:35.752Z,17.50
2019-05-10T06:46:03.282Z,17.50
2019-05-10T06:48:33.685Z,17.60
2019-05-10T06:51:02.742Z,17.60
2019-05-10T06:53:29.514Z,17.60
2019-05-10T06:55:56.968Z,17.60
2019-05-10T06:58:24.503Z,17.60
2019-05-10T07:00:52.858Z,17.60
2019-05-10T07:03:20.394Z,17.60
2019-05-10T07:05:47.765Z,17.60
2019-05-10T07:08:20.207Z,17.60
2019-05-10T07:10:44.918Z,17.60
2019-05-10T07:13:12.316Z,17.60
2019-05-10T07:15:42.206Z,17.60
2019-05-10T07:18:09.385Z,17.70
2019-05-10T07:20:36.855Z,17.70
2019-05-10T07:23:07.844Z,17.70
2019-05-10T07:25:37.603Z,17.70
2019-05-10T07:28:09.269Z,17.70
2019-05-10T07:31:01.881Z,17.70
2019-05-10T07:33:32.232Z,17.30
2019-05-10T07:35:58.601Z,17.80
2019-05-10T07:38:30.810Z,17.80
2019-05-10T07:40:55.299Z,17.80
2019-05-10T07:43:26.534Z,17.90
2019-05-10T07:45:52.089Z,17.90
2019-05-10T07:48:23.045Z,17.90
2019-05-10T07:50:51.667Z,17.90
2019-05-10T07:53:22.775Z,18.00
2019-05-10T07:55:47.454Z,18.00
2019-05-10T07:58:14.848Z,18.00
2019-05-10T08:00:44.616Z,18.00
2019-05-10T08:03:16.109Z,18.00
2019-05-10T08:05:40.917Z,18.00
2019-05-10T08:08:09.539Z,16.50
2019-05-10T08:10:39.243Z,18.00
2019-05-10T08:13:08.460Z,18.00
2019-05-10T08:15:38.129Z,18.00
2019-05-10T08:18:05.147Z,18.00
2019-05-10T08:20:46.484Z,18.00
2019-05-10T08:23:02.827Z,18.00
2019-05-10T08:25:36.474Z,18.10
2019-05-10T08:28:03.276Z,18.20
2019-05-10T08:30:51.355Z,18.20
2019-05-10T08:33:13.562Z,18.40
2019-05-10T08:35:43.378Z,18.50
2019-05-10T08:38:08.733Z,18.60
2019-05-10T08:40:38.044Z,18.80
2019-05-10T08:43:08.916Z,18.90
2019-05-10T08:45:38.802Z,18.90
2019-05-10T08:48:08.005Z,19.00
2019-05-10T08:50:49.294Z,19.10
2019-05-10T08:53:10.717Z,19.20
2019-05-10T08:55:34.264Z,19.30
2019-05-10T09:00:54.814Z,19.70
2019-05-10T09:03:18.528Z,19.90
2019-05-10T09:05:46.070Z,20.20
2019-05-10T09:08:44.761Z,18.40
2019-05-10T09:11:12.223Z,20.50
2019-05-10T09:13:42.641Z,20.70
2019-05-10T09:16:08.946Z,20.80
2019-05-10T09:18:38.027Z,20.40
2019-05-10T09:21:10.362Z,20.80
2019-05-10T09:23:35.322Z,20.70
2019-05-10T09:26:10.682Z,20.60
2019-05-10T09:28:33.119Z,20.60
2019-05-10T09:31:16.549Z,20.90
2019-05-10T09:33:31.982Z,21.30
2019-05-10T09:35:59.496Z,21.80
2019-05-10T09:38:28.731Z,22.20
2019-05-10T09:40:56.491Z,22.50
2019-05-10T09:43:24.377Z,22.60
2019-05-10T09:45:53.109Z,22.60
2019-05-10T09:48:22.781Z,22.60
2019-05-10T09:50:55.033Z,22.50
2019-05-10T09:53:25.393Z,22.40
2019-05-10T09:55:55.251Z,22.30
2019-05-10T09:58:22.318Z,22.10
2019-05-10T10:00:48.631Z,21.90
2019-05-10T10:03:16.201Z,21.80
2019-05-10T10:05:43.773Z,21.60
2019-05-10T10:08:11.259Z,21.40
2019-05-10T10:10:38.753Z,21.30
2019-05-10T10:13:13.245Z,21.10
2019-05-10T10:15:37.269Z,19.30
2019-05-10T10:18:05.158Z,20.70
2019-05-10T10:20:36.061Z,18.60
2019-05-10T10:23:06.990Z,20.80
2019-05-10T10:25:39.863Z,20.80
2019-05-10T10:28:10.381Z,20.80
2019-05-10T10:30:32.742Z,20.90
2019-05-10T10:33:00.269Z,20.90
2019-05-10T10:35:29.924Z,20.70
2019-05-10T10:37:57.432Z,20.80
2019-05-10T10:40:27.925Z,20.80
2019-05-10T10:42:57.678Z,20.60
2019-05-10T10:45:27.574Z,20.50
2019-05-10T10:47:54.084Z,20.50
2019-05-10T10:50:21.468Z,20.40
2019-05-10T10:52:48.948Z,20.30
2019-05-10T10:55:18.536Z,20.20
2019-05-10T10:57:47.919Z,20.20
2019-05-10T11:00:23.197Z,20.10
2019-05-10T11:02:52.082Z,20.10
2019-05-10T11:05:17.789Z,19.70
2019-05-10T11:07:47.766Z,20.10
2019-05-10T11:10:22.314Z,18.30
2019-05-10T11:12:51.209Z,20.10
2019-05-10T11:15:26.101Z,20.10
2019-05-10T11:17:47.831Z,20.20
2019-05-10T11:20:15.216Z,20.20
2019-05-10T11:22:49.614Z,20.30
2019-05-10T11:25:12.855Z,20.30
2019-05-10T11:27:41.576Z,20.30
2019-05-10T11:30:11.887Z,20.40
2019-05-10T11:32:38.714Z,20.40
2019-05-10T11:35:06.895Z,20.40
2019-05-10T11:37:36.367Z,20.30
2019-05-10T11:40:03.968Z,20.30
2019-05-10T11:42:31.447Z,20.30
2019-05-10T11:45:00.823Z,20.30
2019-05-10T11:47:31.096Z,20.30
2019-05-10T11:49:58.058Z,20.20
2019-05-10T11:54:54.747Z,20.20
2019-05-10T11:57:22.235Z,20.30
2019-05-10T11:59:03.715Z,20.30
2019-05-10T11:59:51.595Z,20.30
2019-05-10T12:02:36.981Z,20.40
2019-05-10T12:04:48.532Z,20.40
2019-05-10T12:07:15.913Z,20.60
2019-05-10T12:09:43.486Z,20.70
2019-05-10T12:12:12.273Z,20.70
2019-05-10T12:15:13.880Z,20.90
2019-05-10T12:17:43.839Z,18.00
2019-05-10T12:20:26.908Z,21.10
2019-05-10T12:26:05.558Z,22.00
2019-05-10T12:27:17.344Z,20.30
2019-05-10T12:29:24.669Z,20.20
2019-05-10T12:31:55.753Z,21.30
2019-05-10T12:34:24.718Z,21.30
2019-05-10T12:36:52.183Z,21.30
2019-05-10T12:39:21.454Z,21.40
2019-05-10T12:41:52.240Z,21.50
2019-05-10T12:44:18.190Z,21.50
2019-05-10T12:46:45.684Z,21.70
2019-05-10T12:49:13.236Z,21.70
2019-05-10T12:52:00.456Z,21.80
2019-05-10T12:54:27.951Z,21.90
2019-05-10T12:56:55.371Z,22.00
2019-05-10T12:59:22.844Z,22.00
2019-05-10T13:01:50.893Z,22.00
2019-05-10T13:04:24.475Z,22.00
2019-05-10T13:06:51.172Z,22.00
2019-05-10T13:09:34.643Z,22.00
2019-05-10T13:12:02.733Z,22.10
2019-05-10T13:14:29.120Z,22.10
2019-05-10T13:17:03.880Z,22.10
2019-05-10T13:27:22.503Z,22.40
2019-05-10T13:29:53.789Z,22.00
2019-05-10T13:32:29.589Z,22.10
2019-05-10T13:35:03.043Z,22.10
2019-05-10T13:51:36.956Z,22.00
2019-05-10T13:57:36.979Z,21.40
2019-05-10T14:00:36.065Z,21.50
2019-05-10T14:03:04.923Z,22.40
2019-05-10T14:05:33.916Z,22.70
2019-05-10T14:08:50.658Z,22.70
2019-05-10T14:12:07.928Z,22.80
2019-05-10T14:25:23.695Z,22.90
2019-05-10T14:31:10.870Z,22.40
2019-05-10T14:33:38.307Z,23.10
2019-05-10T14:36:05.730Z,22.90
2019-05-10T14:38:33.180Z,23.00
2019-05-10T14:41:04.003Z,22.90
2019-05-10T14:43:30.095Z,22.90
2019-05-10T14:45:57.569Z,22.90
2019-05-10T14:48:30.413Z,22.90
2019-05-10T14:50:54.534Z,22.90
2019-05-10T14:53:25.674Z,23.00
2019-05-10T14:55:53.223Z,23.00
2019-05-10T14:58:20.736Z,23.10
2019-05-10T15:00:48.091Z,23.10
2019-05-10T15:03:15.520Z,23.10
2019-05-10T15:05:43.016Z,23.10
2019-05-10T15:08:10.765Z,23.10
2019-05-10T15:10:39.732Z,23.10
2019-05-10T15:13:07.606Z,23.10
2019-05-10T15:15:37.339Z,23.10
2019-05-10T15:18:04.483Z,23.10
2019-05-10T15:20:35.522Z,23.00
2019-05-10T15:23:03.893Z,23.00
2019-05-10T15:25:31.335Z,23.00
2019-05-10T15:28:00.211Z,23.00
2019-05-10T15:30:28.466Z,23.00
2019-05-10T15:32:55.930Z,22.90
2019-05-10T15:35:23.455Z,23.90
2019-05-10T15:37:50.773Z,22.90
2019-05-10T15:41:17.055Z,22.80
2019-05-10T15:43:48.972Z,22.80
2019-05-10T15:46:13.975Z,22.70
2019-05-10T15:48:42.025Z,22.70
2019-05-10T15:51:35.367Z,22.60
2019-05-10T15:53:50.975Z,22.60
2019-05-10T15:56:22.250Z,22.50
2019-05-10T15:58:49.775Z,22.40
2019-05-10T16:01:26.268Z,22.40
2019-05-10T16:03:46.900Z,22.20
2019-05-10T16:06:14.403Z,22.10
2019-05-10T16:08:42.012Z,22.00
2019-05-10T16:11:18.080Z,21.90
2019-05-10T16:13:38.859Z,21.80
2019-05-10T16:16:06.264Z,21.80
2019-05-10T16:18:39.901Z,21.70
2019-05-10T16:21:02.935Z,21.70
2019-05-10T16:23:30.335Z,21.60
2019-05-10T16:25:57.849Z,21.50
2019-05-10T16:42:27.916Z,21.40
2019-05-10T16:44:39.295Z,20.70
2019-05-10T16:51:49.933Z,21.10
2019-05-10T16:55:24.857Z,21.40
2019-05-10T16:57:52.340Z,19.80
2019-05-10T17:06:35.464Z,20.80
2019-05-10T17:09:01.019Z,20.60
2019-05-10T17:11:28.902Z,20.70
2019-05-10T17:13:56.431Z,20.60
2019-05-10T17:16:23.959Z,20.60
2019-05-10T17:18:55.238Z,20.50
2019-05-10T17:21:21.083Z,20.50
2019-05-10T17:23:48.904Z,20.40
2019-05-10T17:26:16.402Z,20.40
2019-05-10T17:28:44.062Z,20.30
2019-05-10T17:31:11.696Z,20.30
2019-05-10T17:33:42.490Z,20.30
2019-05-10T17:36:08.984Z,20.20
2019-05-10T17:41:44.311Z,18.90
2019-05-10T17:44:11.787Z,20.10
2019-05-10T17:46:39.297Z,20.10
2019-05-10T17:49:06.824Z,20.10
2019-05-10T17:51:34.359Z,20.00
2019-05-10T17:54:03.599Z,20.00
2019-05-10T17:56:32.674Z,20.00
2019-05-10T17:59:05.924Z,19.90
2019-05-10T18:01:30.355Z,19.90
2019-05-10T18:03:57.882Z,19.80
2019-05-10T18:06:26.090Z,19.80
2019-05-10T18:08:53.535Z,19.80
2019-05-10T18:11:20.973Z,19.80
2019-05-10T18:13:48.397Z,19.70
2019-05-10T18:16:17.437Z,19.70
2019-05-10T18:18:49.384Z,19.70
2019-05-10T18:21:22.062Z,19.60
2019-05-10T18:23:58.157Z,19.60
2019-05-10T18:26:24.901Z,19.60
2019-05-10T18:29:06.783Z,19.50
2019-05-10T18:31:34.636Z,19.50
2019-05-10T18:34:04.852Z,19.70
2019-05-10T18:36:50.404Z,19.30
2019-05-10T18:39:08.953Z,19.40
2019-05-10T18:41:41.431Z,19.30
2019-05-10T18:44:08.277Z,19.30
2019-05-10T18:46:36.284Z,19.30
2019-05-10T18:49:04.149Z,18.80
2019-05-10T18:51:34.500Z,19.10
2019-05-10T18:54:01.155Z,19.20
2019-05-10T18:56:31.463Z,19.20
2019-05-10T18:59:45.541Z,19.20
2019-05-10T19:05:15.182Z,19.20
2019-05-10T19:08:02.966Z,17.00
2019-05-10T19:13:03.906Z,19.20
2019-05-10T19:24:44.606Z,19.10
2019-05-10T19:27:20.593Z,19.00
2019-05-10T19:29:50.134Z,21.70
2019-05-10T19:32:20.236Z,19.80
2019-05-10T19:34:56.951Z,19.00
2019-05-10T19:37:29.768Z,18.90
2019-05-10T19:40:10.689Z,18.90
2019-05-10T19:42:43.547Z,18.90
2019-05-10T19:45:13.057Z,18.90
2019-05-10T19:47:39.102Z,17.40
2019-05-10T19:50:07.088Z,18.80
2019-05-10T19:52:34.909Z,18.80
2019-05-10T19:55:05.058Z,18.80
2019-05-10T19:57:32.737Z,16.00
2019-05-10T20:00:00.367Z,18.80
2019-05-10T20:02:27.855Z,18.70
2019-05-10T20:04:55.560Z,18.80
2019-05-10T20:07:23.073Z,18.80
2019-05-10T20:09:52.926Z,18.70
2019-05-10T20:12:24.357Z,18.80
2019-05-10T20:14:51.980Z,18.80
2019-05-10T20:17:21.289Z,18.80
2019-05-10T20:19:49.045Z,18.70
2019-05-10T20:22:16.714Z,21.50
2019-05-10T20:24:44.232Z,18.80
2019-05-10T20:27:11.701Z,18.70
2019-05-10T20:29:39.124Z,18.70
2019-05-10T20:32:06.710Z,21.10
2019-05-10T20:34:34.432Z,18.80
2019-05-10T20:37:02.016Z,17.70
2019-05-10T20:39:29.541Z,18.90
2019-05-10T20:41:57.113Z,18.80
2019-05-10T20:44:24.560Z,15.60
2019-05-10T20:46:52.384Z,18.80
2019-05-10T20:49:19.909Z,18.80
2019-05-10T20:51:47.397Z,18.80
2019-05-10T20:54:22.544Z,18.80
2019-05-10T20:56:52.124Z,18.60
2019-05-10T20:59:19.788Z,18.80
2019-05-10T21:01:48.928Z,18.80
2019-05-10T21:04:16.468Z,18.70
2019-05-10T21:06:44.072Z,18.70
2019-05-10T21:09:11.646Z,18.70
2019-05-10T21:11:40.393Z,18.70
2019-05-10T21:14:09.413Z,18.70
2019-05-10T21:16:40.043Z,18.70
2019-05-10T21:19:13.882Z,18.60
2019-05-10T21:21:50.452Z,18.60
2019-05-10T21:24:18.158Z,18.50
2019-05-10T21:26:45.667Z,18.60
2019-05-10T21:29:13.204Z,18.40
2019-05-10T21:31:40.806Z,18.50
2019-05-10T21:34:10.108Z,18.40
2019-05-10T21:36:37.645Z,18.40
2019-05-10T21:39:06.667Z,18.40
2019-05-10T21:41:34.206Z,18.40
2019-05-10T21:44:01.793Z,18.40
2019-05-10T21:46:29.212Z,18.40
2019-05-10T21:48:56.763Z,18.30
2019-05-10T21:51:24.462Z,18.40
2019-05-10T21:53:52.813Z,18.40
2019-05-10T21:56:20.460Z,18.40
2019-05-10T21:58:48.031Z,18.40
2019-05-10T22:01:26.048Z,18.40
2019-05-10T22:03:53.677Z,18.40
2019-05-10T22:06:21.239Z,18.40
2019-05-10T22:08:49.739Z,18.40
2019-05-10T22:11:17.470Z,18.40
2019-05-10T22:13:45.040Z,18.40
2019-05-10T22:16:12.716Z,18.40
2019-05-10T22:18:41.145Z,18.40
2019-05-10T22:21:08.830Z,18.40
2019-05-10T22:23:36.456Z,18.40
2019-05-10T22:26:03.970Z,18.40
2019-05-10T22:28:31.577Z,18.40
2019-05-10T22:30:59.179Z,18.40
2019-05-10T22:33:26.671Z,18.40
2019-05-10T22:35:54.311Z,18.40
2019-05-10T22:38:22.085Z,18.40
2019-05-10T22:40:50.547Z,18.40
2019-05-10T22:43:19.727Z,18.40
2019-05-10T22:45:47.687Z,18.40
2019-05-10T22:48:15.251Z,18.30
2019-05-10T22:50:42.867Z,18.40
2019-05-10T22:53:12.575Z,18.40
2019-05-10T22:55:43.983Z,18.30
2019-05-10T22:58:12.535Z,18.40
2019-05-10T23:00:40.241Z,18.40
2019-05-10T23:03:07.952Z,18.40
2019-05-10T23:05:35.402Z,18.40
2019-05-10T23:08:02.972Z,18.30
2019-05-10T23:10:31.426Z,18.30
2019-05-10T23:13:03.104Z,18.30
2019-05-10T23:15:30.881Z,18.30
2019-05-10T23:17:58.448Z,18.20
2019-05-10T23:20:25.932Z,18.20
2019-05-10T23:22:53.664Z,18.30
2019-05-10T23:25:21.328Z,18.30
2019-05-10T23:27:48.927Z,18.30
2019-05-10T23:30:16.648Z,18.30
2019-05-10T23:32:44.536Z,18.30
2019-05-10T23:35:12.150Z,18.30
2019-05-10T23:37:40.074Z,18.30
2019-05-10T23:40:07.778Z,18.30
2019-05-10T23:42:35.283Z,18.30
2019-05-10T23:45:02.818Z,18.30
2019-05-10T23:47:30.285Z,18.30
2019-05-10T23:49:57.818Z,18.30
2019-05-10T23:52:25.364Z,18.30
2019-05-10T23:54:52.833Z,18.30
2019-05-10T23:57:20.368Z,18.30
2019-05-10T23:59:47.942Z,18.30
